Time;durP1;ratioP1;P1;durP2;ratioP2;P2;SDS_P1;SDS_P2;PMS_P1;PMS_P2;Temp;Humidity;BMP_temperature;BMP_pressure;BME280_temperature;BME280_humidity;BME280_pressure;Samples;Min_cycle;Max_cycle;Signal;HPM_P1;HPM_P2
2023/10/10 00:00:49;;;;;;;31.02;21.63;;;;;;;18.96;67.11;101444.88;684446;28;1376;-85
2023/10/10 00:01:00;;;;;;;33.50;22.52;;;;;;;18.94;67.04;101433.41;683024;28;1361;-86
2023/10/10 00:01:21;;;;;;;31.75;21.77;;;;;;;18.93;66.91;101434.31;690690;28;1372;-86
2023/10/10 00:01:46;;;;;;;33.97;21.48;;;;;;;18.91;66.84;101431.63;691118;28;1189;-86
2023/10/10 00:02:18;;;;;;;26.75;20.25;;;;;;;18.98;67.06;101451.06;692911;28;1139;-87
2023/10/10 00:02:38;;;;;;;29.15;21.30;;;;;;;18.90;66.79;101438.72;693650;28;1245;-86
2023/10/10 00:02:59;;;;;;;30.43;22.47;;;;;;;18.90;66.87;101441.34;693347;28;1218;-86
2023/10/10 00:03:21;;;;;;;33.20;22.98;;;;;;;18.88;67.01;101429.00;687234;28;1349;-85
2023/10/10 00:03:42;;;;;;;27.52;21.85;;;;;;;18.88;67.04;101436.94;691499;28;1079;-86
2023/10/10 00:04:05;;;;;;;29.42;21.73;;;;;;;18.88;66.92;101434.28;693026;28;1157;-86
2023/10/10 00:04:27;;;;;;;28.55;22.05;;;;;;;18.94;66.86;101446.66;692499;28;1671;-85
2023/10/10 00:04:54;;;;;;;30.33;22.48;;;;;;;18.89;66.96;101442.19;689745;28;1265;-86
2023/10/10 00:05:18;;;;;;;30.80;22.27;;;;;;;18.84;67.00;101436.03;690576;28;1269;-87
2023/10/10 00:05:39;;;;;;;28.02;21.52;;;;;;;18.89;66.94;101450.13;694200;28;1285;-86
2023/10/10 00:06:06;;;;;;;26.40;21.33;;;;;;;18.87;66.96;101443.09;690414;28;1212;-87
2023/10/10 00:06:28;;;;;;;26.70;20.67;;;;;;;18.89;66.83;101450.13;690139;28;1410;-85
2023/10/10 00:06:49;;;;;;;27.23;20.90;;;;;;;18.91;66.94;101447.50;687599;28;1232;-86
2023/10/10 00:07:13;;;;;;;27.70;22.02;;;;;;;18.86;66.96;101441.31;687469;28;1231;-86
2023/10/10 00:07:35;;;;;;;27.48;21.60;;;;;;;18.85;66.76;101435.16;692290;28;1267;-86
2023/10/10 00:07:59;;;;;;;28.48;21.35;;;;;;;18.91;66.92;101451.06;690537;28;962;-87
2023/10/10 00:08:20;;;;;;;38.55;21.98;;;;;;;18.80;67.02;101433.38;689950;28;1273;-86
2023/10/10 00:08:43;;;;;;;37.88;22.55;;;;;;;18.81;66.89;101433.34;689547;28;1259;-86
2023/10/10 00:09:05;;;;;;;37.08;22.70;;;;;;;18.82;66.94;101440.44;690230;28;1132;-86
2023/10/10 00:09:26;;;;;;;29.20;22.20;;;;;;;18.74;67.00;101427.19;692627;28;1632;-85
2023/10/10 00:09:50;;;;;;;29.55;22.33;;;;;;;18.78;67.09;101436.00;690441;28;796;-86
2023/10/10 00:10:13;;;;;;;28.45;21.50;;;;;;;18.80;67.07;101431.59;690089;28;1232;-86
2023/10/10 00:10:34;;;;;;;27.77;21.30;;;;;;;18.78;66.85;101433.34;687649;28;1290;-87
2023/10/10 00:10:55;;;;;;;35.60;22.05;;;;;;;18.80;67.17;101426.31;693207;28;1347;-89
2023/10/10 00:11:18;;;;;;;36.60;22.48;;;;;;;18.81;67.10;101427.22;695562;28;1361;-86
2023/10/10 00:11:41;;;;;;;33.85;22.05;;;;;;;18.88;67.00;101435.16;695763;28;1277;-86
2023/10/10 00:12:03;;;;;;;27.75;21.88;;;;;;;18.81;67.07;101425.44;687668;28;1217;-86
2023/10/10 00:12:29;;;;;;;29.45;22.10;;;;;;;18.85;67.18;101429.88;689758;28;1237;-86
2023/10/10 00:12:49;;;;;;;31.30;23.08;;;;;;;18.83;66.99;101431.63;693219;28;1219;-86
2023/10/10 00:13:12;;;;;;;31.90;21.80;;;;;;;18.81;66.91;101428.06;692776;28;1079;-87
2023/10/10 00:13:32;;;;;;;31.98;22.20;;;;;;;18.81;67.08;101430.72;690203;28;1209;-87
2023/10/10 00:14:04;;;;;;;34.28;22.83;;;;;;;18.85;67.08;101434.25;685143;28;1168;-87
2023/10/10 00:14:28;;;;;;;28.30;21.25;;;;;;;18.81;66.93;101436.00;690309;28;1277;-87
2023/10/10 00:14:50;;;;;;;29.23;20.55;;;;;;;18.79;66.95;101429.84;689751;28;1143;-86
2023/10/10 00:15:20;;;;;;;32.55;21.40;;;;;;;18.78;67.02;101428.06;682289;28;1289;-86
2023/10/10 00:15:49;;;;;;;34.05;22.25;;;;;;;18.80;66.81;101436.88;685951;28;1356;-87
2023/10/10 00:16:23;;;;;;;32.10;23.25;;;;;;;18.82;67.10;101432.50;684901;28;1257;-87
2023/10/10 00:16:47;;;;;;;35.00;22.92;;;;;;;18.83;67.03;101436.91;689484;28;1234;-86
2023/10/10 00:17:09;;;;;;;31.50;21.85;;;;;;;18.72;67.01;101422.75;690322;28;1511;-87
2023/10/10 00:17:34;;;;;;;27.98;21.80;;;;;;;18.74;67.07;101423.63;687531;28;973;-86
2023/10/10 00:18:00;;;;;;;27.75;20.95;;;;;;;18.80;67.20;101439.53;693198;28;1390;-86
2023/10/10 00:18:22;;;;;;;30.88;22.17;;;;;;;18.76;67.20;101435.13;689739;28;1345;-86
2023/10/10 00:18:45;;;;;;;37.40;23.20;;;;;;;18.77;67.06;101427.19;688613;28;1287;-86
2023/10/10 00:19:54;;;;;;;33.80;22.40;;;;;;;18.78;66.99;101438.66;687427;28;1233;-88
2023/10/10 00:20:06;;;;;;;30.67;22.77;;;;;;;18.70;67.27;101429.81;687262;28;1286;-86
2023/10/10 00:20:35;;;;;;;33.22;23.67;;;;;;;18.75;67.21;101430.72;688055;28;1335;-86
2023/10/10 00:21:09;;;;;;;32.55;23.38;;;;;;;18.74;67.34;101431.56;698730;28;1339;-85
2023/10/10 00:21:30;;;;;;;29.42;23.20;;;;;;;18.72;67.06;101428.94;693037;28;1259;-86
2023/10/10 00:21:50;;;;;;;33.03;24.27;;;;;;;18.73;67.18;101429.81;690832;28;1116;-88
2023/10/10 00:22:12;;;;;;;35.10;24.25;;;;;;;18.80;67.09;101439.53;693329;28;1210;-87
2023/10/10 00:22:36;;;;;;;54.50;24.30;;;;;;;18.77;67.08;101431.59;687808;28;1283;-86
2023/10/10 00:22:59;;;;;;;53.22;24.50;;;;;;;18.75;67.25;101433.34;685569;28;855;-87
2023/10/10 00:23:20;;;;;;;35.08;24.35;;;;;;;18.74;67.12;101431.56;690549;28;1041;-87
2023/10/10 00:23:44;;;;;;;33.10;23.38;;;;;;;18.72;67.22;101439.50;693373;28;1267;-86
2023/10/10 00:24:12;;;;;;;30.33;22.40;;;;;;;18.71;67.18;101435.09;689499;28;1074;-86
2023/10/10 00:24:33;;;;;;;30.35;22.27;;;;;;;18.70;67.16;101429.81;687924;28;1364;-87
2023/10/10 00:24:54;;;;;;;34.50;23.73;;;;;;;18.69;67.04;101430.69;688390;28;882;-86
2023/10/10 00:25:17;;;;;;;32.88;23.50;;;;;;;18.72;67.10;101449.19;687914;28;1176;-87
2023/10/10 00:25:42;;;;;;;31.83;23.48;;;;;;;18.64;67.32;101431.53;683449;28;1382;-86
2023/10/10 00:26:11;;;;;;;25.33;22.52;;;;;;;18.65;67.22;101435.06;685470;28;1160;-85
2023/10/10 00:26:34;;;;;;;27.50;22.83;;;;;;;18.71;67.32;101442.13;690569;28;1091;-88
2023/10/10 00:26:55;;;;;;;32.72;24.67;;;;;;;18.66;67.39;101439.47;690970;28;1214;-86
2023/10/10 00:27:16;;;;;;;33.55;25.10;;;;;;;18.69;67.55;101438.63;690670;28;1064;-86
2023/10/10 00:27:39;;;;;;;34.63;25.00;;;;;;;18.72;67.29;101449.19;690986;28;1066;-86
2023/10/10 00:28:05;;;;;;;30.67;22.90;;;;;;;18.67;67.13;101437.72;688328;28;1216;-86
2023/10/10 00:28:27;;;;;;;31.23;21.50;;;;;;;18.67;67.10;101438.59;691374;28;1297;-86
2023/10/10 00:28:55;;;;;;;37.47;22.50;;;;;;;18.64;67.22;101442.09;689220;28;784;-86
2023/10/10 00:29:22;;;;;;;41.25;23.73;;;;;;;18.64;67.19;101436.81;687985;28;964;-87
2023/10/10 00:29:43;;;;;;;37.70;25.17;;;;;;;18.64;67.26;101431.53;685493;28;1237;-86
2023/10/10 00:30:13;;;;;;;36.77;25.20;;;;;;;18.65;67.09;101437.72;690871;28;1097;-87
2023/10/10 00:30:42;;;;;;;40.13;24.85;;;;;;;18.60;67.08;101428.88;690222;28;1481;-88
2023/10/10 00:31:03;;;;;;;40.05;24.65;;;;;;;18.58;67.17;101435.91;693571;28;1022;-88
2023/10/10 00:31:26;;;;;;;35.70;23.65;;;;;;;18.56;67.23;101430.59;688366;28;1168;-86
2023/10/10 00:31:55;;;;;;;32.30;23.88;;;;;;;18.57;67.32;101434.16;692606;28;1308;-86
2023/10/10 00:32:22;;;;;;;30.92;23.15;;;;;;;18.55;67.27;101442.06;690612;28;1108;-86
2023/10/10 00:32:46;;;;;;;33.38;23.58;;;;;;;18.59;67.08;101438.56;692906;28;1340;-86
2023/10/10 00:33:07;;;;;;;33.25;24.63;;;;;;;18.56;67.47;101437.66;696031;28;1067;-86
2023/10/10 00:33:31;;;;;;;29.85;23.88;;;;;;;18.60;67.21;101444.72;690581;28;1355;-86
2023/10/10 00:33:52;;;;;;;29.60;22.85;;;;;;;18.54;67.28;101437.66;690337;28;1275;-86
2023/10/10 00:34:13;;;;;;;27.33;21.05;;;;;;;18.57;67.18;101442.94;687524;28;1374;-86
2023/10/10 00:34:34;;;;;;;27.98;21.27;;;;;;;18.54;67.22;101434.09;687888;28;1169;-86
2023/10/10 00:34:55;;;;;;;25.70;20.88;;;;;;;18.51;67.22;101440.28;693566;28;1330;-86
2023/10/10 00:35:17;;;;;;;26.80;21.67;;;;;;;18.50;67.10;101443.78;693472;28;1470;-86
2023/10/10 00:35:38;;;;;;;28.83;22.48;;;;;;;18.50;67.20;101444.69;693684;28;1217;-86
2023/10/10 00:35:59;;;;;;;29.83;22.10;;;;;;;18.44;67.27;101433.19;696292;28;1268;-86
2023/10/10 00:36:22;;;;;;;28.15;20.67;;;;;;;18.45;67.26;101435.81;690281;28;1277;-86
2023/10/10 00:36:43;;;;;;;26.20;19.48;;;;;;;18.43;67.28;101436.72;693451;28;1395;-87
2023/10/10 00:37:13;;;;;;;26.93;20.67;;;;;;;18.46;67.20;101444.66;688175;28;1011;-87
2023/10/10 00:37:34;;;;;;;28.65;21.95;;;;;;;18.48;67.28;101450.81;693206;28;1261;-86
2023/10/10 00:37:57;;;;;;;35.10;22.83;;;;;;;18.40;67.54;101442.88;696545;28;1326;-86
2023/10/10 00:38:24;;;;;;;34.70;23.20;;;;;;;18.43;67.73;101434.94;690311;28;1967;-86
2023/10/10 00:38:46;;;;;;;27.13;22.23;;;;;;;18.45;67.46;101445.53;686932;28;1285;-87
2023/10/10 00:39:36;;;;;;;33.95;24.40;;;;;;;18.45;67.62;101434.97;688108;28;1117;-87
2023/10/10 00:40:00;;;;;;;31.58;23.75;;;;;;;18.52;67.57;101447.34;690890;28;1231;-85
2023/10/10 00:40:29;;;;;;;30.33;22.40;;;;;;;18.42;67.48;101434.91;690553;28;1312;-85
2023/10/10 00:40:51;;;;;;;28.42;21.70;;;;;;;18.49;67.49;101444.66;693588;28;776;-87
2023/10/10 00:41:15;;;;;;;27.98;21.20;;;;;;;18.51;67.37;101445.56;688010;28;996;-86
2023/10/10 00:42:19;;;;;;;27.25;19.85;;;;;;;18.43;67.39;101434.09;693169;28;1227;-86
2023/10/10 00:42:41;;;;;;;28.13;20.17;;;;;;;18.44;67.38;101443.78;691351;28;1280;-84
2023/10/10 00:43:04;;;;;;;32.05;21.13;;;;;;;18.35;67.35;101424.34;692165;28;1360;-86
2023/10/10 00:43:25;;;;;;;30.02;21.10;;;;;;;18.34;67.46;101425.19;690649;28;1060;-87
2023/10/10 00:43:45;;;;;;;30.85;21.02;;;;;;;18.35;67.43;101434.91;694764;28;1314;-87
2023/10/10 00:44:10;;;;;;;25.00;20.02;;;;;;;18.35;67.33;101432.28;690054;28;1633;-87
2023/10/10 00:44:33;;;;;;;23.33;18.70;;;;;;;18.35;67.39;101437.56;690518;28;1238;-87
2023/10/10 00:44:54;;;;;;;24.75;18.10;;;;;;;18.35;67.39;101434.00;696207;28;1601;-86
2023/10/10 00:45:14;;;;;;;24.23;17.48;;;;;;;18.35;67.50;101439.31;697287;28;1246;-86
2023/10/10 00:45:36;;;;;;;24.52;17.83;;;;;;;18.32;67.35;101424.31;698515;28;1160;-87
2023/10/10 00:45:57;;;;;;;23.92;18.08;;;;;;;18.31;67.38;101432.25;691035;28;1294;-86
2023/10/10 00:46:23;;;;;;;24.98;18.75;;;;;;;18.32;67.42;101434.00;694773;28;1206;-86
2023/10/10 00:46:54;;;;;;;23.92;18.25;;;;;;;18.25;67.44;101426.91;692338;28;1239;-86
2023/10/10 00:47:15;;;;;;;23.70;18.73;;;;;;;18.31;67.73;101440.16;691945;28;1019;-87
2023/10/10 00:47:41;;;;;;;24.30;19.02;;;;;;;18.24;67.54;101435.72;698137;28;1269;-86
2023/10/10 00:48:02;;;;;;;27.40;20.33;;;;;;;18.17;67.50;101432.13;691220;28;1068;-87
2023/10/10 00:48:29;;;;;;;30.48;22.00;;;;;;;18.18;67.37;101436.53;687842;28;1335;-86
2023/10/10 00:48:59;;;;;;;30.60;22.55;;;;;;;18.17;67.74;101437.41;695599;28;1210;-87
2023/10/10 00:49:24;;;;;;;29.10;21.30;;;;;;;18.21;67.89;101441.84;692980;28;1251;-86
2023/10/10 00:49:46;;;;;;;26.15;20.45;;;;;;;18.18;67.79;101431.25;693342;28;1312;-86
2023/10/10 00:50:08;;;;;;;26.58;20.38;;;;;;;18.14;67.79;101424.16;686915;28;1237;-86
2023/10/10 00:50:34;;;;;;;26.50;20.52;;;;;;;18.22;67.67;101438.34;690551;28;1377;-87
2023/10/10 00:51:05;;;;;;;30.65;22.00;;;;;;;18.13;67.71;101428.56;696400;28;704;-89
2023/10/10 00:51:33;;;;;;;35.05;23.70;;;;;;;18.22;67.97;101427.78;690647;28;1371;-89
2023/10/10 00:51:56;;;;;;;33.30;24.00;;;;;;;18.14;67.92;101429.44;696206;28;1156;-88
2023/10/10 00:52:17;;;;;;;34.00;24.00;;;;;;;18.15;68.05;101426.84;696040;28;1059;-88
2023/10/10 00:52:38;;;;;;;32.67;24.20;;;;;;;18.17;68.03;101430.38;690507;28;1315;-88
2023/10/10 00:53:06;;;;;;;35.70;23.90;;;;;;;18.23;68.04;101437.47;690784;28;1415;-88
2023/10/10 00:53:27;;;;;;;33.17;23.00;;;;;;;18.15;67.91;101415.41;690757;28;1027;-89
2023/10/10 00:54:08;;;;;;;32.30;23.13;;;;;;;18.20;67.96;101432.16;695313;28;1152;-88
2023/10/10 00:54:32;;;;;;;29.85;22.65;;;;;;;18.22;67.87;101433.06;690581;28;1421;-88
2023/10/10 00:54:53;;;;;;;27.92;20.98;;;;;;;18.17;67.91;101424.22;687839;28;1254;-88
2023/10/10 00:55:21;;;;;;;25.02;20.08;;;;;;;18.19;67.81;101433.03;693398;28;1324;-88
2023/10/10 00:55:42;;;;;;;27.60;20.48;;;;;;;18.20;68.05;101425.09;693369;28;1300;-86
2023/10/10 00:56:07;;;;;;;30.53;22.57;;;;;;;18.24;67.82;101431.31;690799;28;1273;-86
2023/10/10 00:56:30;;;;;;;34.72;25.10;;;;;;;18.25;67.88;101437.47;687788;28;1274;-86
2023/10/10 00:56:56;;;;;;;34.28;25.60;;;;;;;18.23;67.91;101434.81;695096;28;1440;-85
2023/10/10 00:57:20;;;;;;;34.45;24.63;;;;;;;18.18;67.75;101426.88;696037;28;1095;-86
2023/10/10 00:57:42;;;;;;;36.80;23.70;;;;;;;18.12;67.82;101426.78;698482;28;1085;-87
2023/10/10 00:58:05;;;;;;;36.42;24.00;;;;;;;18.17;67.97;101434.78;698927;28;1965;-86
2023/10/10 00:58:36;;;;;;;34.50;25.40;;;;;;;18.18;67.88;101428.59;696231;28;1034;-86
2023/10/10 00:58:56;;;;;;;33.90;25.52;;;;;;;18.22;67.93;101446.25;693598;28;1215;-86
2023/10/10 00:59:18;;;;;;;35.35;25.77;;;;;;;18.19;67.81;101438.34;687950;28;1113;-86
2023/10/10 00:59:45;;;;;;;30.80;24.08;;;;;;;18.11;67.97;101418.84;682517;28;1261;-87
2023/10/10 01:00:10;;;;;;;30.40;23.05;;;;;;;18.17;67.72;101429.50;687694;28;1265;-86
2023/10/10 01:00:32;;;;;;;32.03;24.02;;;;;;;18.15;67.92;101437.44;693120;28;1222;-86
2023/10/10 01:00:55;;;;;;;30.20;24.80;;;;;;;18.08;67.95;101420.59;693639;28;858;-87
2023/10/10 01:01:19;;;;;;;32.75;25.42;;;;;;;18.20;67.90;101433.03;692882;28;1279;-88
2023/10/10 01:01:40;;;;;;;32.95;25.70;;;;;;;18.14;67.98;101422.41;690659;28;1234;-87
2023/10/10 01:02:04;;;;;;;33.22;25.73;;;;;;;18.13;68.08;101427.69;693554;28;986;-89
2023/10/10 01:02:25;;;;;;;37.42;25.55;;;;;;;18.17;68.24;101424.22;687670;28;1258;-88
2023/10/10 01:02:49;;;;;;;36.80;25.75;;;;;;;18.15;68.11;101420.69;686881;28;827;-88
2023/10/10 01:03:22;;;;;;;36.95;25.88;;;;;;;18.15;67.95;101421.56;687914;28;1339;-87
2023/10/10 01:03:49;;;;;;;31.98;24.55;;;;;;;18.20;68.07;101425.09;693457;28;1097;-89
2023/10/10 01:04:11;;;;;;;29.63;23.85;;;;;;;18.18;68.17;101418.03;695767;28;1283;-87
2023/10/10 01:04:38;;;;;;;31.02;24.15;;;;;;;18.21;68.04;101432.16;690489;28;1291;-87
2023/10/10 01:05:05;;;;;;;30.85;22.70;;;;;;;18.17;67.89;101417.19;682858;29;1320;-89
2023/10/10 01:05:39;;;;;;;29.15;22.17;;;;;;;18.12;67.99;101405.66;687974;28;1153;-89
2023/10/10 01:06:05;;;;;;;31.38;24.30;;;;;;;18.21;67.99;101426.00;693532;28;1282;-88
2023/10/10 01:06:26;;;;;;;36.95;24.05;;;;;;;18.20;67.82;101422.47;690704;28;1167;-87
2023/10/10 01:06:51;;;;;;;35.63;22.10;;;;;;;18.20;67.97;101426.88;696209;28;1157;-87
2023/10/10 01:07:18;;;;;;;38.60;22.60;;;;;;;18.14;67.81;101405.69;693344;28;1092;-86
2023/10/10 01:07:40;;;;;;;32.85;23.55;;;;;;;18.23;67.79;101429.53;693228;28;1318;-87
2023/10/10 01:08:00;;;;;;;36.60;25.33;;;;;;;18.18;67.77;101425.97;687894;28;1352;-86
2023/10/10 01:08:31;;;;;;;35.38;25.85;;;;;;;18.12;67.71;101410.06;691238;28;1132;-86
2023/10/10 01:09:20;;;;;;;32.47;24.65;;;;;;;18.18;67.82;101431.25;690937;28;1216;-86
2023/10/10 01:09:51;;;;;;;29.77;23.80;;;;;;;18.16;67.76;101428.63;687910;28;1162;-86
2023/10/10 01:10:12;;;;;;;28.50;22.35;;;;;;;18.12;67.91;101425.91;688355;28;1256;-87
2023/10/10 01:10:43;;;;;;;27.35;21.92;;;;;;;18.08;67.83;101417.94;687620;28;1125;-85
2023/10/10 01:11:05;;;;;;;27.52;23.90;;;;;;;18.14;67.81;101424.16;686967;28;1249;-86
2023/10/10 01:11:26;;;;;;;27.40;24.10;;;;;;;18.11;67.76;101426.75;688035;28;1284;-87
2023/10/10 01:11:49;;;;;;;27.90;23.05;;;;;;;18.10;67.74;101423.25;690894;28;1251;-87
2023/10/10 01:12:10;;;;;;;31.05;23.40;;;;;;;18.09;67.97;101424.13;687921;28;1246;-87
2023/10/10 01:12:39;;;;;;;33.53;23.00;;;;;;;18.10;67.87;101417.97;687847;28;1264;-87
2023/10/10 01:13:00;;;;;;;32.63;21.75;;;;;;;18.09;67.89;101432.91;687239;28;1114;-87
2023/10/10 01:13:21;;;;;;;31.20;21.38;;;;;;;18.08;67.88;101431.16;687889;28;1271;-86
2023/10/10 01:13:42;;;;;;;30.53;22.50;;;;;;;18.06;67.70;101422.34;691509;28;1306;-87
2023/10/10 01:14:04;;;;;;;32.05;24.30;;;;;;;18.07;67.83;101428.53;685382;28;1248;-87
2023/10/10 01:14:26;;;;;;;32.03;24.45;;;;;;;18.06;68.10;101432.91;690740;28;1251;-87
2023/10/10 01:14:47;;;;;;;30.30;23.25;;;;;;;18.09;67.92;101432.91;690842;28;1267;-86
2023/10/10 01:15:56;;;;;;;31.70;22.67;;;;;;;18.04;67.92;101424.09;685223;28;1095;-87
2023/10/10 01:16:04;;;;;;;33.45;22.17;;;;;;;18.03;68.08;101424.09;683449;28;1278;-87
2023/10/10 01:16:26;;;;;;;33.33;22.10;;;;;;;18.05;68.00;101424.97;684723;28;1225;-87
2023/10/10 01:16:54;;;;;;;34.08;22.73;;;;;;;18.06;67.88;101430.28;690754;28;1365;-86
2023/10/10 01:17:15;;;;;;;30.25;22.50;;;;;;;18.01;68.12;101418.78;692830;28;1197;-87
2023/10/10 01:17:38;;;;;;;24.98;21.30;;;;;;;18.02;67.82;101428.47;687382;28;1161;-86
2023/10/10 01:17:59;;;;;;;29.13;21.83;;;;;;;17.99;68.07;101425.81;690392;28;1455;-86
2023/10/10 01:18:24;;;;;;;32.75;22.20;;;;;;;17.99;67.95;101409.06;692410;28;1968;-86
2023/10/10 01:18:57;;;;;;;33.95;24.17;;;;;;;18.03;68.04;101430.25;687643;28;1585;-86
2023/10/10 01:19:18;;;;;;;34.58;25.65;;;;;;;18.03;68.05;101432.91;690371;28;1388;-87
2023/10/10 01:19:38;;;;;;;38.38;24.50;;;;;;;18.05;67.99;101433.78;687775;28;1391;-87
2023/10/10 01:20:18;;;;;;;42.00;24.15;;;;;;;17.99;67.99;101412.63;688105;28;1164;-87
2023/10/10 01:20:49;;;;;;;36.63;25.52;;;;;;;18.00;68.18;101422.31;690775;28;1310;-89
2023/10/10 01:21:18;;;;;;;35.92;27.60;;;;;;;18.03;68.03;101432.91;685072;28;1310;-89
2023/10/10 01:21:50;;;;;;;35.28;26.38;;;;;;;18.07;68.17;101429.41;693282;28;1216;-88
2023/10/10 01:22:22;;;;;;;34.67;25.23;;;;;;;18.05;68.23;101431.16;695956;28;1424;-88
2023/10/10 01:22:46;;;;;;;32.08;24.60;;;;;;;18.01;68.14;101421.41;693394;28;1266;-89
2023/10/10 01:23:07;;;;;;;30.92;24.15;;;;;;;18.09;68.08;101438.22;693202;28;1251;-88
2023/10/10 01:23:28;;;;;;;31.65;25.17;;;;;;;18.04;67.90;101424.09;687701;28;1375;-88
2023/10/10 01:23:49;;;;;;;34.15;25.45;;;;;;;18.02;67.97;101425.81;692449;28;1301;-88
2023/10/10 01:24:12;;;;;;;33.20;25.15;;;;;;;18.04;68.02;101428.50;690191;28;1098;-89
2023/10/10 01:24:33;;;;;;;33.65;24.65;;;;;;;18.03;67.97;101427.63;690452;28;1470;-88
2023/10/10 01:24:54;;;;;;;35.88;24.90;;;;;;;18.03;67.92;101422.34;690133;28;1212;-89
2023/10/10 01:26:05;;;;;;;31.52;23.52;;;;;;;18.09;68.00;101432.91;692211;28;1579;-89
2023/10/10 01:26:35;;;;;;;30.95;24.20;;;;;;;17.97;68.13;101414.38;685236;28;1098;-87
2023/10/10 01:27:04;;;;;;;32.55;25.40;;;;;;;18.04;67.90;101428.50;688184;28;843;-89
2023/10/10 01:27:26;;;;;;;35.40;26.88;;;;;;;17.97;68.14;101422.28;690586;28;1019;-88
2023/10/10 01:27:46;;;;;;;36.30;26.52;;;;;;;17.98;68.01;101423.16;690858;28;1268;-89
2023/10/10 01:28:27;;;;;;;36.17;25.90;;;;;;;18.03;68.15;101432.91;687659;28;1492;-88
2023/10/10 01:28:48;;;;;;;34.30;24.60;;;;;;;18.01;68.16;101428.47;693489;28;1280;-89
2023/10/10 01:29:21;;;;;;;28.88;23.50;;;;;;;17.95;68.08;101414.34;696076;28;1280;-89
2023/10/10 01:29:50;;;;;;;26.67;22.60;;;;;;;17.96;68.16;101420.53;692600;28;1336;-89
2023/10/10 01:30:43;;;;;;;28.05;22.27;;;;;;;18.00;67.96;101422.31;690638;28;1274;-88
2023/10/10 01:31:18;;;;;;;36.05;24.85;;;;;;;17.94;68.06;101419.59;693478;28;970;-88
2023/10/10 01:31:38;;;;;;;38.63;25.70;;;;;;;17.95;68.21;101424.03;696090;28;880;-88
2023/10/10 01:32:02;;;;;;;38.40;24.85;;;;;;;17.91;68.06;101417.84;696282;28;1321;-89
2023/10/10 01:32:23;;;;;;;34.50;23.27;;;;;;;17.92;68.14;101418.72;693165;28;1091;-88
2023/10/10 01:32:50;;;;;;;30.17;22.70;;;;;;;17.94;67.98;101428.44;694226;28;1020;-89
2023/10/10 01:33:22;;;;;;;27.33;21.98;;;;;;;17.89;68.22;101414.28;693157;28;1229;-89
2023/10/10 01:33:47;;;;;;;24.65;21.02;;;;;;;17.93;68.10;101424.03;693364;28;1387;-88
2023/10/10 01:34:09;;;;;;;25.50;20.55;;;;;;;17.86;68.00;101416.03;695609;28;1337;-88
2023/10/10 01:34:30;;;;;;;27.27;20.10;;;;;;;17.87;68.19;101420.44;692961;28;1690;-89
2023/10/10 01:34:51;;;;;;;32.25;21.15;;;;;;;17.90;68.04;101420.47;693584;28;811;-88
2023/10/10 01:35:16;;;;;;;36.25;24.45;;;;;;;17.87;67.95;101415.16;687361;28;1201;-89
2023/10/10 01:35:41;;;;;;;40.53;25.90;;;;;;;17.90;68.34;101423.09;684937;28;1375;-89
2023/10/10 01:36:11;;;;;;;33.90;24.88;;;;;;;17.99;68.29;101438.13;690616;28;1252;-89
2023/10/10 01:36:33;;;;;;;37.95;26.20;;;;;;;17.91;68.33;101416.97;687726;28;900;-89
2023/10/10 01:36:57;;;;;;;36.65;25.00;;;;;;;17.93;68.26;101409.91;685145;28;1225;-89
2023/10/10 01:37:20;;;;;;;41.78;26.50;;;;;;;18.02;68.18;101424.97;687746;28;1272;-88
2023/10/10 01:37:41;;;;;;;47.42;29.20;;;;;;;17.97;68.30;101419.66;685181;28;871;-89
2023/10/10 01:38:04;;;;;;;52.85;30.58;;;;;;;17.99;68.32;101420.53;685348;28;1032;-88
2023/10/10 01:38:38;;;;;;;48.75;30.58;;;;;;;18.07;68.42;101429.41;682457;28;1262;-88
2023/10/10 01:39:19;;;;;;;42.30;29.63;;;;;;;18.07;68.29;101418.84;688106;28;839;-89
2023/10/10 01:39:53;;;;;;;50.38;29.45;;;;;;;18.11;68.44;101427.66;690224;28;1345;-89
2023/10/10 01:40:16;;;;;;;43.97;27.65;;;;;;;18.06;68.27;101416.16;690311;28;974;-89
2023/10/10 01:40:37;;;;;;;40.13;27.45;;;;;;;18.02;68.33;101409.13;690545;28;1066;-89
2023/10/10 01:41:04;;;;;;;37.13;28.00;;;;;;;18.15;68.13;101420.69;682710;28;1172;-88
2023/10/10 01:41:58;;;;;;;39.00;27.75;;;;;;;18.06;68.39;101405.59;690983;28;1251;-88
2023/10/10 01:42:13;;;;;;;42.58;28.88;;;;;;;18.08;68.23;101396.81;691205;28;1048;-89
2023/10/10 01:42:38;;;;;;;38.85;30.15;;;;;;;18.20;68.16;101429.53;690437;28;1201;-89
2023/10/10 01:42:59;;;;;;;37.92;29.48;;;;;;;18.13;68.12;101411.84;690723;28;1274;-87
2023/10/10 01:43:20;;;;;;;40.20;29.40;;;;;;;18.20;68.04;101411.91;692347;28;1311;-89
2023/10/10 01:43:46;;;;;;;44.17;30.17;;;;;;;18.22;68.12;101417.22;696036;28;1231;-88
2023/10/10 01:44:12;;;;;;;44.53;31.08;;;;;;;18.16;68.23;101401.31;695689;28;1171;-88
2023/10/10 01:44:36;;;;;;;38.67;30.80;;;;;;;18.20;68.10;101408.41;693105;28;1256;-88
2023/10/10 01:45:04;;;;;;;39.42;31.52;;;;;;;18.22;68.30;101404.00;690316;28;1138;-88
2023/10/10 01:45:29;;;;;;;40.40;31.25;;;;;;;18.23;68.22;101408.41;698697;28;1361;-88
2023/10/10 01:46:08;;;;;;;42.33;31.90;;;;;;;18.26;68.34;101408.41;693462;28;1462;-88
2023/10/10 01:46:29;;;;;;;44.13;31.25;;;;;;;18.21;68.34;101397.81;690489;28;1168;-88
2023/10/10 01:46:53;;;;;;;43.03;30.48;;;;;;;18.24;67.98;101402.25;691997;28;1218;-88
2023/10/10 01:47:25;;;;;;;44.30;32.15;;;;;;;18.29;68.28;101408.44;693279;28;1250;-88
2023/10/10 01:48:08;;;;;;;51.00;34.15;;;;;;;18.34;68.00;101416.41;693337;28;1241;-88
2023/10/10 01:48:30;;;;;;;46.60;32.88;;;;;;;18.33;67.83;101412.84;690387;28;1153;-87
2023/10/10 01:48:50;;;;;;;46.58;32.50;;;;;;;18.31;68.29;101409.34;685305;28;1091;-89
2023/10/10 01:49:15;;;;;;;46.33;32.10;;;;;;;18.36;68.18;101415.53;690839;28;1121;-88
2023/10/10 01:49:36;;;;;;;50.13;31.70;;;;;;;18.32;67.97;101402.31;692610;28;1323;-88
2023/10/10 01:49:58;;;;;;;46.17;32.53;;;;;;;18.33;68.08;101415.50;688148;28;784;-88
2023/10/10 01:50:19;;;;;;;44.85;32.00;;;;;;;18.32;68.10;101411.09;684831;28;1100;-88
2023/10/10 01:50:40;;;;;;;41.35;30.65;;;;;;;18.29;68.01;101403.16;687777;28;1372;-89
2023/10/10 01:51:02;;;;;;;40.38;29.10;;;;;;;18.33;67.89;101410.22;693425;28;1032;-88
2023/10/10 01:51:29;;;;;;;35.30;28.50;;;;;;;18.27;67.95;101404.91;692861;28;1203;-89
2023/10/10 01:51:58;;;;;;;40.80;30.38;;;;;;;18.28;67.91;101404.03;687625;28;1318;-88
2023/10/10 01:52:21;;;;;;;44.33;31.77;;;;;;;18.30;68.08;101415.50;690462;28;1055;-89
2023/10/10 01:52:46;;;;;;;44.30;32.05;;;;;;;18.29;68.18;101402.25;690668;28;1022;-88
2023/10/10 01:53:09;;;;;;;45.03;30.90;;;;;;;18.30;67.97;101409.31;690401;28;1077;-89
2023/10/10 01:53:30;;;;;;;45.55;30.35;;;;;;;18.36;68.03;101418.19;693207;28;1095;-88
2023/10/10 01:54:06;;;;;;;48.42;30.38;;;;;;;18.35;68.01;101420.81;696264;28;1208;-89
2023/10/10 01:54:41;;;;;;;39.70;27.10;;;;;;;18.33;68.05;101418.16;693197;28;1319;-88
2023/10/10 01:55:03;;;;;;;32.20;26.13;;;;;;;18.30;68.08;101414.59;690666;28;1313;-88
2023/10/10 01:55:24;;;;;;;37.78;27.95;;;;;;;18.29;68.00;101413.72;692971;28;1407;-89
2023/10/10 01:55:47;;;;;;;42.10;29.25;;;;;;;18.36;68.04;101425.22;694396;28;1051;-89
2023/10/10 01:56:11;;;;;;;42.25;28.58;;;;;;;18.29;67.90;101407.56;687361;28;1337;-89
2023/10/10 01:56:32;;;;;;;37.15;26.38;;;;;;;18.34;67.89;101417.25;687811;28;1080;-88
2023/10/10 01:56:54;;;;;;;35.75;27.08;;;;;;;18.35;67.99;101419.06;685231;28;1403;-88
2023/10/10 01:57:24;;;;;;;36.80;29.35;;;;;;;18.32;68.03;101420.81;687932;28;1316;-89
2023/10/10 01:57:44;;;;;;;43.97;29.70;;;;;;;18.30;68.00;101409.31;690530;28;1231;-88
2023/10/10 01:58:11;;;;;;;44.03;29.73;;;;;;;18.32;68.08;101412.88;693161;28;1963;-88
2023/10/10 01:58:32;;;;;;;45.55;30.55;;;;;;;18.31;67.94;101414.63;687612;28;1303;-88
2023/10/10 01:58:57;;;;;;;39.22;29.55;;;;;;;18.29;68.01;101411.09;690248;28;1279;-89